Time;durP1;ratioP1;P1;durP2;ratioP2;P2;SDS_P1;SDS_P2;PMS_P1;PMS_P2;Temp;Humidity;BMP_temperature;BMP_pressure;BME280_temperature;BME280_humidity;BME280_pressure;Samples;Min_cycle;Max_cycle;Signal;HPM_P1;HPM_P2
2022/03/18 00:00:51;;;;;;;6.03;4.53;;;;;;;3.28;100.00;96005.78;5052609;28;20550;-60
2022/03/18 00:03:17;;;;;;;7.97;5.70;;;;;;;3.27;100.00;96014.16;5052084;28;20196;-65
2022/03/18 00:05:42;;;;;;;6.03;5.10;;;;;;;3.27;100.00;96014.16;5051304;28;20569;-61
2022/03/18 00:08:10;;;;;;;6.17;5.07;;;;;;;3.38;100.00;96022.16;5052121;28;20182;-63
2022/03/18 00:10:35;;;;;;;5.53;4.53;;;;;;;3.33;100.00;96018.97;5050002;28;20201;-64
2022/03/18 00:13:01;;;;;;;4.33;3.93;;;;;;;3.39;100.00;96033.84;5052321;28;20194;-63
2022/03/18 00:15:27;;;;;;;5.13;4.63;;;;;;;3.32;100.00;96017.38;5051474;28;20198;-64
2022/03/18 00:17:54;;;;;;;5.80;4.60;;;;;;;3.25;100.00;96022.66;5051628;28;20270;-63
2022/03/18 00:20:20;;;;;;;5.33;4.50;;;;;;;3.22;100.00;96025.25;5052191;28;20281;-64
2022/03/18 00:22:46;;;;;;;6.07;5.10;;;;;;;3.08;100.00;96032.44;5051530;28;20597;-64
2022/03/18 00:25:13;;;;;;;5.63;4.87;;;;;;;3.02;100.00;96032.66;5051279;28;20629;-61
2022/03/18 00:27:42;;;;;;;7.33;5.40;;;;;;;3.02;99.56;96051.06;5052573;28;20300;-63
2022/03/18 00:30:09;;;;;;;6.60;4.93;;;;;;;2.92;100.00;96028.81;5050356;28;20205;-65
2022/03/18 00:32:37;;;;;;;6.07;5.00;;;;;;;2.96;99.93;96036.19;5049915;28;20213;-61
2022/03/18 00:35:03;;;;;;;7.67;5.23;;;;;;;3.00;99.62;96040.25;5050821;28;20567;-60
2022/03/18 00:37:29;;;;;;;7.57;5.27;;;;;;;2.97;100.00;96024.47;5049882;28;20609;-60
2022/03/18 00:39:54;;;;;;;6.10;5.37;;;;;;;3.02;100.00;96022.59;5050001;28;20204;-65
2022/03/18 00:42:20;;;;;;;9.80;5.97;;;;;;;3.04;100.00;96021.69;5053533;28;20639;-63
2022/03/18 00:44:45;;;;;;;8.17;6.40;;;;;;;3.19;100.00;96051.31;5054803;28;20644;-65
2022/03/18 00:52:38;;;;;;;10.43;6.80;;;;;;;3.23;100.00;96057.88;5041523;22;20292;-60
2022/03/18 00:55:04;;;;;;;12.03;6.83;;;;;;;3.20;99.69;96062.19;5034320;28;20233;-61
2022/03/18 00:57:29;;;;;;;9.97;7.07;;;;;;;3.08;100.00;96048.34;5034677;28;20178;-64
2022/03/18 00:59:55;;;;;;;10.37;6.33;;;;;;;3.07;100.00;96051.72;5034374;28;20198;-65
2022/03/18 01:02:20;;;;;;;10.33;6.83;;;;;;;3.10;100.00;96056.66;5035923;28;20265;-65
2022/03/18 01:04:46;;;;;;;7.90;6.40;;;;;;;3.10;100.00;96069.22;5034344;28;20190;-61
2022/03/18 01:07:11;;;;;;;8.57;5.97;;;;;;;3.21;99.00;96084.72;5034757;28;20218;-62
2022/03/18 01:09:37;;;;;;;6.13;4.93;;;;;;;3.21;99.18;96086.44;5036126;28;20194;-61
2022/03/18 01:12:04;;;;;;;7.90;5.90;;;;;;;3.11;99.50;96078.38;5035238;28;20210;-60
2022/03/18 01:14:30;;;;;;;7.30;5.03;;;;;;;3.14;100.00;96070.75;5035291;28;20198;-64
2022/03/18 01:16:56;;;;;;;6.20;5.07;;;;;;;3.17;98.97;96078.16;5034607;28;20186;-61
2022/03/18 01:19:21;;;;;;;8.50;6.00;;;;;;;2.97;99.19;96047.84;5035504;28;20205;-64
2022/03/18 01:21:46;;;;;;;7.13;5.53;;;;;;;2.97;98.89;96057.09;5034848;28;20266;-61
2022/03/18 01:24:12;;;;;;;7.30;5.70;;;;;;;2.97;98.71;96067.94;5035205;28;20185;-60
2022/03/18 01:26:38;;;;;;;7.57;5.57;;;;;;;2.92;98.59;96067.28;5017337;28;20623;-65
2022/03/18 01:29:04;;;;;;;8.30;5.93;;;;;;;3.02;97.98;96083.72;5017617;28;20178;-65
2022/03/18 01:31:30;;;;;;;8.13;5.77;;;;;;;2.79;95.91;96077.78;5034802;28;20561;-60
2022/03/18 01:33:56;;;;;;;7.50;4.87;;;;;;;2.94;98.01;96072.25;5035117;28;20205;-64
2022/03/18 01:36:29;;;;;;;9.70;6.30;;;;;;;2.92;98.32;96049.72;5034904;28;20216;-61
2022/03/18 01:38:55;;;;;;;8.40;6.10;;;;;;;2.93;98.26;96058.88;5035148;28;20183;-61
2022/03/18 01:41:21;;;;;;;7.80;5.97;;;;;;;3.08;98.10;96070.94;5035304;28;20655;-64
2022/03/18 01:43:48;;;;;;;9.07;6.13;;;;;;;3.20;96.38;96093.16;5033982;28;20186;-60
2022/03/18 01:46:15;;;;;;;9.00;6.57;;;;;;;3.17;97.79;96075.66;5016384;28;21275;-64
2022/03/18 01:48:48;;;;;;;10.17;6.80;;;;;;;3.19;98.08;96073.13;5033473;28;20178;-63
2022/03/18 01:51:17;;;;;;;8.03;6.13;;;;;;;3.24;98.89;96069.56;5033380;28;20279;-61
2022/03/18 01:53:44;;;;;;;10.20;7.27;;;;;;;3.27;98.42;96078.69;5033116;28;20178;-61
2022/03/18 01:56:11;;;;;;;7.90;6.33;;;;;;;3.18;98.18;96086.53;5015888;28;20209;-65
2022/03/18 01:58:37;;;;;;;8.03;6.77;;;;;;;3.02;97.14;96065.28;5015429;28;20261;-60
2022/03/18 02:01:03;;;;;;;8.00;6.40;;;;;;;3.10;99.40;96065.88;5033121;28;20289;-65
2022/03/18 02:03:28;;;;;;;10.50;7.63;;;;;;;3.04;98.06;96076.94;5033673;28;20194;-64
2022/03/18 02:05:55;;;;;;;10.70;6.93;;;;;;;3.04;98.82;96068.56;5033335;28;20213;-61
2022/03/18 02:08:21;;;;;;;9.30;6.63;;;;;;;2.94;100.00;96047.16;5033559;28;20665;-64
2022/03/18 02:10:46;;;;;;;9.90;6.53;;;;;;;2.95;100.00;96046.28;5033535;28;20206;-65
2022/03/18 02:13:12;;;;;;;10.07;7.00;;;;;;;3.06;100.00;96074.38;5033652;28;20644;-65
2022/03/18 02:15:38;;;;;;;9.43;7.00;;;;;;;3.05;100.00;96071.03;5015157;28;20740;-60
2022/03/18 02:18:05;;;;;;;10.93;7.83;;;;;;;3.03;99.57;96067.75;5033103;28;20324;-63
2022/03/18 02:20:32;;;;;;;12.07;7.10;;;;;;;3.13;99.59;96074.13;5033327;28;20510;-64
2022/03/18 02:22:58;;;;;;;8.97;7.47;;;;;;;3.13;98.76;96066.56;5033352;28;20193;-63
2022/03/18 02:25:24;;;;;;;12.87;7.93;;;;;;;3.21;97.09;96097.28;5033058;28;20213;-61
2022/03/18 02:27:58;;;;;;;10.07;7.77;;;;;;;3.19;98.18;96081.44;5032842;28;20205;-61
2022/03/18 02:30:24;;;;;;;8.97;7.83;;;;;;;3.11;97.95;96095.16;5032694;28;20234;-64
2022/03/18 02:32:49;;;;;;;10.80;8.37;;;;;;;3.00;97.59;96087.97;5032616;28;20191;-60
2022/03/18 02:35:15;;;;;;;10.33;7.73;;;;;;;2.73;100.00;96058.69;5032558;28;20207;-64
2022/03/18 02:37:40;;;;;;;10.30;8.53;;;;;;;2.78;100.00;96066.91;5032730;28;20175;-63
2022/03/18 02:40:07;;;;;;;11.67;8.97;;;;;;;2.68;100.00;96052.19;5032581;28;20277;-60
2022/03/18 02:42:32;;;;;;;11.87;8.63;;;;;;;2.91;98.96;96083.22;5038896;23;20699;-62
2022/03/18 02:44:58;;;;;;;11.37;9.40;;;;;;;2.74;100.00;96072.06;5032262;28;20202;-65
2022/03/18 02:47:24;;;;;;;13.07;8.97;;;;;;;2.76;100.00;96068.66;5032288;28;20202;-64
2022/03/18 02:49:50;;;;;;;9.70;8.00;;;;;;;2.85;99.81;96085.94;5032321;28;20198;-61
2022/03/18 02:52:16;;;;;;;12.33;8.20;;;;;;;2.70;98.99;96065.50;5032399;28;20620;-61
2022/03/18 02:54:42;;;;;;;13.13;9.40;;;;;;;2.86;98.83;96097.63;5032785;28;20228;-59
2022/03/18 02:57:07;;;;;;;11.00;9.23;;;;;;;2.94;98.15;96117.47;5014867;28;20554;-60
2022/03/18 02:59:33;;;;;;;13.80;10.13;;;;;;;3.15;96.63;96141.91;5032354;28;20209;-60
2022/03/18 03:01:59;;;;;;;13.77;10.57;;;;;;;3.10;96.54;96143.75;5033028;28;20730;-60
2022/03/18 03:04:25;;;;;;;14.07;10.80;;;;;;;3.01;97.08;96132.28;5031697;28;20260;-60
2022/03/18 03:09:41;;;;;;;13.70;10.80;;;;;;;3.14;96.31;96142.78;5018175;28;20572;-60
2022/03/18 03:12:07;;;;;;;14.80;11.53;;;;;;;3.07;97.77;96137.13;5032506;28;20174;-65
2022/03/18 03:14:32;;;;;;;16.10;12.07;;;;;;;3.02;96.75;96143.16;5014459;28;20194;-60
2022/03/18 03:16:58;;;;;;;16.23;12.40;;;;;;;2.91;97.31;96135.97;5033938;28;20205;-59
2022/03/18 03:19:23;;;;;;;14.13;10.10;;;;;;;2.71;96.53;96119.88;5032732;28;20198;-63
2022/03/18 03:21:49;;;;;;;15.27;10.57;;;;;;;2.71;97.37;96124.91;5033983;28;20710;-60
2022/03/18 03:24:15;;;;;;;15.03;11.13;;;;;;;2.43;98.45;96092.28;5014372;28;20218;-63
2022/03/18 03:26:41;;;;;;;11.90;9.70;;;;;;;2.44;98.29;96114.81;5033529;28;20302;-60
2022/03/18 03:29:06;;;;;;;16.60;9.93;;;;;;;2.51;98.23;96128.81;5031749;28;20688;-64
2022/03/18 03:31:32;;;;;;;12.83;10.47;;;;;;;2.58;98.75;96126.97;5032330;28;20182;-64
2022/03/18 03:33:58;;;;;;;13.10;9.57;;;;;;;2.55;97.42;96142.09;5032301;28;20175;-60
2022/03/18 03:36:24;;;;;;;14.90;10.03;;;;;;;2.49;97.65;96148.13;5032757;28;20210;-64
2022/03/18 03:38:49;;;;;;;12.37;8.87;;;;;;;2.52;95.94;96162.28;5032859;28;20541;-61
2022/03/18 03:41:15;;;;;;;11.37;8.13;;;;;;;2.50;96.18;96161.50;5031619;28;20221;-61
2022/03/18 03:43:41;;;;;;;10.10;8.10;;;;;;;2.44;96.61;96159.16;5031553;28;20235;-63
2022/03/18 03:46:07;;;;;;;12.00;8.57;;;;;;;2.43;95.77;96158.34;5031911;28;20238;-64
2022/03/18 03:48:33;;;;;;;11.50;8.47;;;;;;;2.33;96.47;96164.50;5031596;28;20209;-60
2022/03/18 03:50:58;;;;;;;11.57;8.13;;;;;;;2.24;96.83;96157.22;5014061;28;20206;-64
2022/03/18 03:53:24;;;;;;;12.67;8.70;;;;;;;2.23;96.65;96162.28;5031531;28;20750;-60
2022/03/18 03:55:50;;;;;;;11.33;8.10;;;;;;;2.29;97.15;96167.13;5104809;23;20333;-64
2022/03/18 03:58:15;;;;;;;12.83;9.00;;;;;;;2.18;98.92;96139.03;5031565;28;20232;-60
2022/03/18 04:00:41;;;;;;;11.00;8.17;;;;;;;2.18;98.25;96146.56;5031624;28;20198;-60
2022/03/18 04:03:07;;;;;;;11.97;8.47;;;;;;;2.22;98.03;96168.19;5014385;28;20230;-60
2022/03/18 04:05:34;;;;;;;13.87;9.63;;;;;;;2.22;98.67;96153.13;5031870;28;20212;-64
2022/03/18 04:08:00;;;;;;;15.17;9.40;;;;;;;2.34;97.97;96167.81;5031584;28;20206;-65
2022/03/18 04:10:26;;;;;;;13.90;9.10;;;;;;;2.44;97.16;96174.22;5012093;28;20600;-61
2022/03/18 04:12:53;;;;;;;13.23;8.20;;;;;;;2.46;97.17;96193.38;5030728;28;20541;-65
2022/03/18 04:15:18;;;;;;;13.50;9.67;;;;;;;2.25;97.42;96176.44;5031972;28;20219;-63
2022/03/18 04:17:46;;;;;;;10.33;7.73;;;;;;;2.26;97.36;96179.78;5035187;28;20187;-65
2022/03/18 04:20:18;;;;;;;11.13;7.80;;;;;;;2.26;97.09;96189.81;5035457;28;20210;-65
2022/03/18 04:22:44;;;;;;;11.23;7.77;;;;;;;2.26;97.55;96193.09;5017153;28;20265;-61
2022/03/18 04:25:10;;;;;;;9.93;8.10;;;;;;;2.19;96.58;96190.81;5035211;28;20260;-60
2022/03/18 04:27:37;;;;;;;9.40;6.93;;;;;;;2.25;95.62;96211.56;5034909;28;20212;-61
2022/03/18 04:30:08;;;;;;;8.90;7.00;;;;;;;2.27;95.08;96227.38;5017328;28;20214;-60
2022/03/18 04:32:34;;;;;;;9.73;7.33;;;;;;;2.28;93.37;96229.00;5035041;28;20232;-62
2022/03/18 04:34:59;;;;;;;18.80;8.20;;;;;;;2.44;94.28;96234.44;5017422;28;20210;-63
2022/03/18 04:37:25;;;;;;;13.13;8.07;;;;;;;2.35;93.38;96227.16;5035050;28;20625;-60
2022/03/18 04:39:51;;;;;;;9.77;7.30;;;;;;;2.25;93.10;96246.66;5035170;28;20610;-60
2022/03/18 04:42:17;;;;;;;8.27;6.67;;;;;;;2.11;93.91;96223.63;5026908;28;20178;-61
2022/03/18 04:44:42;;;;;;;9.47;6.83;;;;;;;2.28;94.14;96235.75;4997486;28;20265;-62
2022/03/18 04:47:08;;;;;;;10.10;7.30;;;;;;;2.30;93.83;96236.53;5021034;28;20199;-61
2022/03/18 04:49:33;;;;;;;10.33;6.57;;;;;;;2.36;91.99;96256.41;5034722;28;20268;-64
2022/03/18 04:51:58;;;;;;;8.03;6.57;;;;;;;2.26;92.40;96258.34;5034624;28;20178;-61
2022/03/18 04:54:24;;;;;;;9.27;6.93;;;;;;;2.20;92.30;96250.97;5034599;28;20202;-60
2022/03/18 04:59:34;;;;;;;9.00;6.57;;;;;;;2.24;92.36;96247.50;5034865;28;20325;-61
2022/03/18 05:01:59;;;;;;;12.17;6.47;;;;;;;2.25;91.81;96275.94;5017133;28;20194;-63
2022/03/18 05:04:25;;;;;;;11.00;6.20;;;;;;;2.34;92.46;96268.19;5034548;28;20293;-60
2022/03/18 05:06:50;;;;;;;10.47;6.93;;;;;;;2.39;92.08;96254.66;5034405;28;20267;-65
2022/03/18 05:09:16;;;;;;;8.37;5.90;;;;;;;2.55;90.94;96288.50;5034624;28;20643;-63
2022/03/18 05:11:41;;;;;;;9.07;7.10;;;;;;;2.64;90.24;96299.16;5034331;28;20182;-61
2022/03/18 05:14:07;;;;;;;5.53;5.00;;;;;;;2.54;89.63;96311.13;5034129;28;20178;-65
2022/03/18 05:16:33;;;;;;;8.17;6.20;;;;;;;2.61;85.81;96352.75;5034254;28;20335;-65
2022/03/18 05:18:58;;;;;;;12.40;6.57;;;;;;;2.41;86.37;96300.59;5034140;28;20660;-62
2022/03/18 05:21:24;;;;;;;9.07;6.27;;;;;;;2.44;87.58;96289.66;5016508;28;20292;-65
2022/03/18 05:23:50;;;;;;;7.90;6.60;;;;;;;2.59;85.28;96336.91;5016258;28;20197;-61
2022/03/18 05:26:15;;;;;;;12.07;7.17;;;;;;;2.63;85.62;96332.66;5034295;28;20254;-65
2022/03/18 05:28:42;;;;;;;8.23;5.87;;;;;;;2.55;84.78;96325.31;5033476;28;20178;-64
2022/03/18 05:31:08;;;;;;;6.73;4.83;;;;;;;2.74;83.29;96353.25;5016376;28;20293;-64
2022/03/18 05:33:34;;;;;;;7.50;4.43;;;;;;;2.82;82.43;96374.78;5016468;28;20257;-62
2022/03/18 05:35:59;;;;;;;7.60;4.90;;;;;;;2.91;84.33;96346.09;5034270;28;20336;-60
2022/03/18 05:38:25;;;;;;;8.97;4.77;;;;;;;2.74;80.77;96401.78;5034257;28;20660;-65
2022/03/18 05:40:52;;;;;;;7.33;4.00;;;;;;;2.71;81.20;96368.44;5034265;28;20205;-61
2022/03/18 05:43:17;;;;;;;6.43;4.40;;;;;;;2.43;80.44;96363.28;5033859;28;20182;-60
2022/03/18 05:45:43;;;;;;;10.23;4.40;;;;;;;2.14;81.25;96348.97;5033951;28;20212;-65
2022/03/18 05:48:08;;;;;;;6.10;4.70;;;;;;;1.95;83.07;96309.31;4999761;28;20253;-64
2022/03/18 05:50:34;;;;;;;6.20;5.00;;;;;;;2.07;86.86;96283.94;5033470;28;20210;-66
2022/03/18 05:53:00;;;;;;;5.73;4.53;;;;;;;2.07;86.29;96277.25;5033819;28;20221;-64
2022/03/18 05:56:52;;;;;;;7.13;4.50;;;;;;;2.00;86.26;96310.06;5033724;28;20652;-63
2022/03/18 05:58:12;;;;;;;10.23;4.63;;;;;;;2.09;85.21;96307.31;5033643;28;20687;-64
2022/03/18 06:00:38;;;;;;;9.50;5.57;;;;;;;2.24;86.60;96302.72;5033800;28;20561;-60
2022/03/18 06:03:04;;;;;;;6.53;4.83;;;;;;;2.14;86.46;96286.25;5033608;28;20552;-63
2022/03/18 06:05:29;;;;;;;7.13;4.97;;;;;;;2.28;84.09;96341.09;5032855;28;20684;-61
2022/03/18 06:11:48;;;;;;;6.77;5.53;;;;;;;2.13;84.62;96318.91;5033208;28;20202;-60
2022/03/18 06:13:24;;;;;;;7.87;4.30;;;;;;;2.15;83.65;96369.84;5033031;28;20228;-61
2022/03/18 06:15:49;;;;;;;6.97;4.70;;;;;;;2.26;84.79;96345.34;5033313;28;20214;-65
2022/03/18 06:18:14;;;;;;;6.60;4.27;;;;;;;2.36;83.46;96369.34;5032763;28;20182;-64
2022/03/18 06:20:40;;;;;;;6.63;4.87;;;;;;;2.58;80.87;96417.28;5014880;28;20729;-60
2022/03/18 06:23:05;;;;;;;8.43;5.30;;;;;;;2.61;80.96;96423.03;5032701;28;20185;-65
2022/03/18 06:25:31;;;;;;;8.87;4.83;;;;;;;2.36;82.14;96397.72;5032877;28;20244;-62
2022/03/18 06:27:56;;;;;;;8.33;4.50;;;;;;;2.71;80.71;96432.00;5014897;28;20300;-61
2022/03/18 06:30:22;;;;;;;9.27;4.97;;;;;;;2.80;80.96;96410.84;5014957;28;20221;-61
2022/03/18 06:32:47;;;;;;;10.13;5.00;;;;;;;2.78;81.26;96420.94;5015053;28;20174;-65
2022/03/18 06:35:13;;;;;;;7.30;4.73;;;;;;;2.90;78.13;96470.84;5032517;28;20313;-65
2022/03/18 06:37:38;;;;;;;7.07;4.87;;;;;;;2.92;76.45;96484.19;5032849;28;20186;-61
2022/03/18 06:40:05;;;;;;;6.80;4.63;;;;;;;2.89;78.09;96456.63;5031614;28;20209;-65
2022/03/18 06:42:30;;;;;;;7.33;4.93;;;;;;;2.92;77.79;96461.59;5032551;28;20181;-62
2022/03/18 06:44:56;;;;;;;8.67;5.03;;;;;;;2.91;77.84;96469.97;5014677;28;20214;-60
2022/03/18 06:47:21;;;;;;;9.70;5.50;;;;;;;2.93;79.49;96444.84;5032218;28;20209;-65
2022/03/18 06:49:47;;;;;;;6.83;4.43;;;;;;;2.88;75.30;96532.84;5014773;28;20279;-64
2022/03/18 06:52:12;;;;;;;9.43;4.83;;;;;;;2.85;75.17;96512.00;5014486;28;20240;-65
2022/03/18 06:54:37;;;;;;;8.30;4.27;;;;;;;2.81;76.06;96485.31;5032166;28;20611;-65
2022/03/18 06:57:04;;;;;;;8.70;4.97;;;;;;;2.85;75.63;96502.78;5032810;28;20688;-65
2022/03/18 06:59:29;;;;;;;9.87;5.23;;;;;;;2.90;77.01;96473.34;5032280;28;20202;-61
2022/03/18 07:01:54;;;;;;;5.97;4.63;;;;;;;2.90;78.28;96440.72;5032446;28;20265;-61
2022/03/18 07:04:20;;;;;;;7.37;4.60;;;;;;;2.69;77.94;96453.78;5032254;28;20256;-63
2022/03/18 07:06:46;;;;;;;7.97;4.50;;;;;;;2.92;77.28;96483.34;5032501;28;20296;-63
2022/03/18 07:09:12;;;;;;;8.23;4.87;;;;;;;2.90;76.62;96495.97;5032063;28;20659;-64
2022/03/18 07:11:37;;;;;;;11.37;5.00;;;;;;;2.71;76.43;96489.72;5032463;28;20197;-64
2022/03/18 07:14:03;;;;;;;9.47;4.47;;;;;;;2.85;75.75;96507.00;4998039;28;20269;-60
2022/03/18 07:19:12;;;;;;;7.30;4.83;;;;;;;3.02;73.51;96545.06;5032254;28;20213;-61
2022/03/18 07:21:38;;;;;;;7.60;4.60;;;;;;;3.02;73.89;96538.34;5032591;28;20226;-61
2022/03/18 07:24:04;;;;;;;7.50;5.00;;;;;;;3.23;71.48;96590.56;5031989;28;20197;-61
2022/03/18 07:26:29;;;;;;;8.70;4.60;;;;;;;3.41;71.92;96569.19;5055590;23;20607;-64
2022/03/18 07:28:56;;;;;;;12.43;4.77;;;;;;;3.50;70.87;96573.94;5051917;28;20663;-64
2022/03/18 07:31:21;;;;;;;5.17;4.03;;;;;;;3.71;70.30;96601.06;5040725;23;20226;-63
2022/03/18 07:33:47;;;;;;;6.83;4.13;;;;;;;3.53;68.36;96615.78;5032372;28;20181;-66
2022/03/18 07:36:13;;;;;;;5.80;3.83;;;;;;;3.18;67.80;96599.91;5031638;28;20213;-64
2022/03/18 07:38:39;;;;;;;6.73;4.40;;;;;;;3.32;69.22;96580.28;5014328;28;20178;-62
2022/03/18 07:41:04;;;;;;;5.17;3.90;;;;;;;3.37;67.99;96612.84;5032296;28;20305;-62
2022/03/18 07:43:30;;;;;;;5.27;4.10;;;;;;;3.35;69.32;96595.28;5032008;28;20655;-64
2022/03/18 07:45:55;;;;;;;5.17;3.87;;;;;;;3.38;68.60;96601.91;5032116;28;20224;-64
2022/03/18 07:48:26;;;;;;;7.40;4.43;;;;;;;3.14;67.29;96590.81;5031880;28;20174;-60
2022/03/18 07:50:51;;;;;;;6.00;3.83;;;;;;;3.33;66.01;96654.00;5041503;23;20319;-64
2022/03/18 07:53:17;;;;;;;5.80;3.90;;;;;;;3.43;64.26;96688.91;5038329;28;20192;-61
2022/03/18 07:55:42;;;;;;;7.80;4.50;;;;;;;3.45;66.44;96612.66;5038215;28;20627;-63
2022/03/18 07:58:08;;;;;;;7.17;4.70;;;;;;;3.59;67.70;96573.72;5038363;28;20204;-61
2022/03/18 08:00:34;;;;;;;6.63;3.80;;;;;;;3.58;64.92;96647.47;5038327;28;20225;-64
2022/03/18 08:03:00;;;;;;;6.97;4.13;;;;;;;3.76;67.27;96579.09;5038054;28;20188;-61
2022/03/18 08:05:25;;;;;;;7.10;4.70;;;;;;;4.01;66.31;96600.22;5038131;28;20197;-63
2022/03/18 08:07:52;;;;;;;4.80;3.80;;;;;;;4.08;67.17;96606.69;5038216;28;20267;-64
2022/03/18 08:10:18;;;;;;;5.40;4.60;;;;;;;4.01;63.60;96668.16;5038530;28;20202;-61
2022/03/18 08:12:45;;;;;;;5.03;4.00;;;;;;;4.22;63.35;96679.31;5020502;28;20181;-61
2022/03/18 08:15:13;;;;;;;4.93;3.97;;;;;;;4.33;61.74;96717.59;5038681;28;20205;-64
2022/03/18 08:17:39;;;;;;;4.77;3.90;;;;;;;4.11;60.33;96739.19;5038136;28;20181;-64
2022/03/18 08:20:09;;;;;;;8.63;3.93;;;;;;;4.17;62.12;96673.56;5020127;28;20205;-64
2022/03/18 08:22:36;;;;;;;5.07;3.90;;;;;;;4.39;62.90;96653.66;5037876;28;20178;-64
2022/03/18 08:25:03;;;;;;;4.33;3.87;;;;;;;4.76;61.16;96692.03;5038214;28;20248;-61
2022/03/18 08:27:29;;;;;;;6.00;4.00;;;;;;;4.98;61.66;96667.84;5037853;28;20249;-62
2022/03/18 08:29:59;;;;;;;6.60;4.17;;;;;;;5.16;61.00;96684.09;5038062;28;20626;-64
2022/03/18 08:32:26;;;;;;;6.63;4.43;;;;;;;5.23;59.98;96718.34;5037987;28;20163;-60
2022/03/18 08:34:52;;;;;;;7.97;4.07;;;;;;;5.27;59.42;96722.41;5038232;28;20627;-65
2022/03/18 08:37:56;;;;;;;7.37;3.93;;;;;;;5.40;60.17;96685.84;5038330;28;20262;-64
2022/03/18 08:40:04;;;;;;;6.10;4.20;;;;;;;5.53;56.00;96788.84;5038268;28;20584;-65
2022/03/18 08:42:31;;;;;;;9.70;4.93;;;;;;;5.57;54.90;96775.25;5038060;28;20271;-61
2022/03/18 08:44:56;;;;;;;8.97;3.87;;;;;;;5.58;52.59;96832.41;5038373;28;20310;-60
2022/03/18 08:47:24;;;;;;;7.10;4.20;;;;;;;5.75;52.07;96836.94;5037877;28;20682;-61
2022/03/18 08:49:49;;;;;;;5.90;4.17;;;;;;;5.51;51.68;96792.28;5037748;28;20702;-64
2022/03/18 08:52:15;;;;;;;4.60;4.07;;;;;;;5.86;52.03;96770.13;5003782;28;20181;-61
2022/03/18 08:54:40;;;;;;;7.80;3.67;;;;;;;6.19;52.43;96753.06;5038270;28;20205;-63
2022/03/18 08:57:05;;;;;;;7.27;3.60;;;;;;;6.50;52.55;96730.91;5019902;28;20180;-64
2022/03/18 08:59:31;;;;;;;6.40;4.10;;;;;;;6.80;50.90;96761.84;5019931;28;20212;-65
2022/03/18 09:01:56;;;;;;;7.97;4.13;;;;;;;6.88;48.11;96827.28;5035601;28;20173;-64
2022/03/18 09:04:22;;;;;;;4.47;3.73;;;;;;;7.04;44.86;96867.16;5035076;28;20683;-62
2022/03/18 09:06:47;;;;;;;5.70;3.70;;;;;;;6.86;48.70;96720.34;5034530;28;20215;-64
2022/03/18 09:09:12;;;;;;;7.20;3.20;;;;;;;6.97;45.65;96751.13;5000539;28;20194;-64
2022/03/18 09:11:38;;;;;;;4.33;3.60;;;;;;;7.48;47.04;96706.94;5034776;28;20219;-64
2022/03/18 09:14:03;;;;;;;11.73;4.10;;;;;;;7.63;49.18;96621.97;5016920;28;20193;-64
2022/03/18 09:16:30;;;;;;;5.30;3.47;;;;;;;8.19;49.56;96615.31;5034581;28;20561;-64
2022/03/18 09:18:55;;;;;;;5.17;4.20;;;;;;;8.44;46.81;96686.06;5034672;28;20644;-65
2022/03/18 09:21:21;;;;;;;6.60;4.10;;;;;;;8.35;46.88;96699.94;5000153;28;20204;-62
2022/03/18 09:23:46;;;;;;;5.67;4.10;;;;;;;8.42;45.75;96708.91;5034481;28;20586;-65
2022/03/18 09:26:12;;;;;;;4.80;4.03;;;;;;;8.42;44.10;96725.84;5034069;28;20206;-60
2022/03/18 09:28:40;;;;;;;7.83;3.70;;;;;;;8.56;43.48;96743.00;5034355;28;20541;-66
2022/03/18 09:31:05;;;;;;;7.50;4.87;;;;;;;7.79;44.64;96706.53;5033963;28;20194;-60
2022/03/18 09:33:31;;;;;;;5.17;3.87;;;;;;;7.50;45.55;96653.72;5033928;28;20197;-60
2022/03/18 09:35:56;;;;;;;7.67;4.53;;;;;;;7.88;46.84;96622.56;5034094;28;20259;-60
2022/03/18 09:38:21;;;;;;;6.73;4.30;;;;;;;8.52;44.67;96673.88;5016091;28;20272;-60
2022/03/18 09:40:47;;;;;;;7.20;3.77;;;;;;;8.38;45.87;96654.16;5016192;28;20681;-62
2022/03/18 09:43:14;;;;;;;7.93;4.27;;;;;;;8.65;43.60;96714.69;5034068;28;20178;-64
2022/03/18 09:45:41;;;;;;;7.30;4.70;;;;;;;9.04;43.60;96672.31;5033670;28;20213;-64
2022/03/18 09:48:09;;;;;;;6.63;4.07;;;;;;;9.13;42.13;96707.44;5033795;28;20225;-65
2022/03/18 09:50:37;;;;;;;5.23;3.90;;;;;;;9.02;40.94;96695.22;5034257;28;20214;-65
2022/03/18 09:53:04;;;;;;;6.77;4.40;;;;;;;8.96;42.46;96649.84;5016091;28;20178;-61
2022/03/18 09:55:30;;;;;;;7.67;4.60;;;;;;;9.04;40.75;96703.59;5033747;28;20198;-61
2022/03/18 09:57:56;;;;;;;5.73;4.23;;;;;;;9.09;41.46;96680.56;5015813;28;20656;-61
2022/03/18 10:00:21;;;;;;;7.70;4.70;;;;;;;9.56;43.40;96625.78;5033633;28;20208;-64
2022/03/18 10:03:18;;;;;;;6.97;4.83;;;;;;;9.57;39.74;96682.47;5033396;28;20174;-62
2022/03/18 10:05:59;;;;;;;6.20;4.43;;;;;;;9.73;41.67;96613.09;5015709;28;20210;-66
2022/03/18 10:08:49;;;;;;;5.20;4.23;;;;;;;9.97;43.16;96585.63;5033683;28;20197;-64
2022/03/18 10:11:18;;;;;;;7.87;4.70;;;;;;;10.14;38.66;96670.28;5022060;28;20267;-61
2022/03/18 10:14:13;;;;;;;6.87;4.53;;;;;;;9.38;40.46;96597.94;5033219;28;20179;-61
2022/03/18 10:16:45;;;;;;;6.03;4.00;;;;;;;8.69;41.59;96589.41;5033412;28;20170;-64
2022/03/18 10:19:13;;;;;;;6.53;4.80;;;;;;;8.07;42.02;96557.59;5033639;28;20239;-64
2022/03/18 10:22:02;;;;;;;7.07;5.37;;;;;;;7.57;43.85;96529.41;5015568;28;20170;-61
2022/03/18 10:24:34;;;;;;;6.27;5.17;;;;;;;7.22;45.78;96503.94;5015489;28;20226;-65
2022/03/18 10:27:19;;;;;;;7.03;4.53;;;;;;;7.72;45.46;96502.59;5033503;28;20237;-60
2022/03/18 10:29:49;;;;;;;7.23;4.13;;;;;;;8.66;42.18;96574.38;5033475;28;20237;-60
2022/03/18 10:32:17;;;;;;;6.80;4.63;;;;;;;9.04;41.63;96588.59;5033012;28;20186;-61
2022/03/18 10:37:46;;;;;;;7.33;4.77;;;;;;;9.57;41.57;96586.81;5032647;28;20204;-65
2022/03/18 10:40:12;;;;;;;7.47;4.80;;;;;;;9.20;41.04;96580.19;5032887;28;20264;-61
2022/03/18 10:42:39;;;;;;;6.30;4.93;;;;;;;8.79;40.93;96573.72;5032205;28;20182;-60
2022/03/18 10:45:06;;;;;;;10.60;5.00;;;;;;;8.73;42.96;96530.91;5032744;28;20257;-61
2022/03/18 10:47:41;;;;;;;7.27;4.33;;;;;;;8.72;40.38;96595.19;5031887;28;20205;-61
2022/03/18 10:50:09;;;;;;;5.97;4.77;;;;;;;8.73;40.93;96575.69;5032451;28;20210;-63
2022/03/18 10:52:59;;;;;;;6.30;4.27;;;;;;;8.26;40.39;96581.22;5031883;28;20186;-63
2022/03/18 10:55:35;;;;;;;6.93;4.50;;;;;;;8.98;40.81;96578.75;5006862;28;20230;-64
2022/03/18 10:58:06;;;;;;;6.63;4.40;;;;;;;9.75;39.11;96606.22;5032332;28;20636;-65
2022/03/18 11:00:34;;;;;;;7.47;4.60;;;;;;;10.21;37.88;96629.31;5032131;28;20281;-65
2022/03/18 11:03:02;;;;;;;11.10;5.90;;;;;;;9.93;37.98;96619.72;5014024;28;20188;-65
2022/03/18 11:05:39;;;;;;;4.97;4.03;;;;;;;9.90;37.93;96613.06;5013947;28;20201;-60
2022/03/18 11:08:13;;;;;;;7.67;4.43;;;;;;;9.69;37.62;96609.06;5014290;28;20675;-60
2022/03/18 11:13:35;;;;;;;6.53;4.20;;;;;;;9.79;37.39;96597.53;5032340;28;20255;-61
2022/03/18 11:16:02;;;;;;;7.07;4.47;;;;;;;10.50;35.83;96614.19;5031905;28;20194;-63
2022/03/18 11:18:30;;;;;;;7.33;4.67;;;;;;;10.66;36.22;96604.84;5014071;28;20190;-64
2022/03/18 11:20:57;;;;;;;8.80;3.93;;;;;;;10.41;37.20;96555.34;5031814;28;20684;-64
2022/03/18 11:23:23;;;;;;;5.53;4.20;;;;;;;11.37;35.68;96600.84;5032098;28;20194;-65
2022/03/18 11:25:55;;;;;;;4.70;3.83;;;;;;;11.87;33.92;96625.19;5031234;28;20350;-61
2022/03/18 11:28:22;;;;;;;9.37;4.90;;;;;;;11.58;33.66;96603.91;5031888;28;20300;-65
2022/03/18 11:31:00;;;;;;;5.27;3.90;;;;;;;10.88;33.70;96576.50;5031782;28;20697;-59
2022/03/18 11:33:26;;;;;;;5.70;4.30;;;;;;;11.45;32.24;96603.78;5031982;28;20645;-60
2022/03/18 11:36:01;;;;;;;6.83;4.63;;;;;;;11.52;31.46;96601.69;5031824;28;20193;-62
2022/03/18 11:38:47;;;;;;;6.13;3.53;;;;;;;11.47;31.61;96594.31;5031780;28;20255;-63
2022/03/18 11:41:14;;;;;;;6.03;4.10;;;;;;;10.94;33.84;96526.09;5031579;28;20194;-64
2022/03/18 11:43:39;;;;;;;12.60;5.93;;;;;;;11.14;35.59;96517.31;5013949;28;20584;-65
2022/03/18 11:46:14;;;;;;;11.50;3.80;;;;;;;11.45;33.32;96554.59;5031497;28;20244;-61
2022/03/18 11:48:46;;;;;;;5.37;3.77;;;;;;;12.01;31.50;96584.41;5031675;28;20359;-64
2022/03/18 11:51:28;;;;;;;5.07;3.57;;;;;;;12.41;31.50;96558.16;5031678;28;20198;-61
2022/03/18 11:53:55;;;;;;;5.47;3.50;;;;;;;12.71;30.97;96540.94;5031972;28;20195;-65
2022/03/18 11:56:23;;;;;;;6.70;4.20;;;;;;;13.04;31.84;96538.00;5031426;28;20586;-60
2022/03/18 11:58:49;;;;;;;5.90;4.23;;;;;;;13.40;31.05;96548.41;5031336;28;20175;-63